createdAt,value
2019-03-29T00:00:48.597Z,60.57
2019-03-29T00:03:18.219Z,80.73
2019-03-29T00:05:48.091Z,68.53
2019-03-29T00:08:17.830Z,76.87
2019-03-29T00:10:47.320Z,75.87
2019-03-29T00:13:17.101Z,80.60
2019-03-29T00:15:46.544Z,72.33
2019-03-29T00:18:16.035Z,72.70
2019-03-29T00:20:45.478Z,72.07
2019-03-29T00:23:15.094Z,86.13
2019-03-29T00:25:44.864Z,69.53
2019-03-29T00:28:14.321Z,74.60
2019-03-29T00:30:44.179Z,72.30
2019-03-29T00:33:13.648Z,65.13
2019-03-29T00:35:43.374Z,69.07
2019-03-29T00:38:12.902Z,73.73
2019-03-29T00:40:42.809Z,67.40
2019-03-29T00:43:12.273Z,66.10
2019-03-29T00:45:42.315Z,81.17
2019-03-29T00:48:11.787Z,68.13
2019-03-29T00:50:41.304Z,67.43
2019-03-29T00:53:10.811Z,71.50
2019-03-29T00:55:40.518Z,91.43
2019-03-29T00:58:10.012Z,77.87
2019-03-29T01:00:39.579Z,89.20
2019-03-29T01:03:09.109Z,70.00
2019-03-29T01:05:39.421Z,67.33
2019-03-29T01:08:10.441Z,78.17
2019-03-29T01:10:40.559Z,80.20
2019-03-29T01:13:10.055Z,71.10
2019-03-29T01:15:39.537Z,76.60
2019-03-29T01:18:09.001Z,81.17
2019-03-29T01:20:38.482Z,77.40
2019-03-29T01:23:08.267Z,71.23
2019-03-29T01:25:37.724Z,71.77
2019-03-29T01:28:07.201Z,69.27
2019-03-29T01:30:36.680Z,74.83
2019-03-29T01:33:06.142Z,72.97
2019-03-29T01:35:36.117Z,80.17
2019-03-29T01:38:05.941Z,73.93
2019-03-29T01:40:35.578Z,77.20
2019-03-29T01:43:05.065Z,70.07
2019-03-29T01:45:34.531Z,70.70
2019-03-29T01:48:04.071Z,71.00
2019-03-29T01:50:34.985Z,69.90
2019-03-29T01:53:04.580Z,65.37
2019-03-29T01:55:34.322Z,69.07
2019-03-29T01:58:03.797Z,72.50
2019-03-29T02:00:38.105Z,65.90
2019-03-29T02:03:07.569Z,66.93
2019-03-29T02:05:37.610Z,58.80
2019-03-29T02:08:07.130Z,66.67
2019-03-29T02:10:36.764Z,63.73
2019-03-29T02:13:06.814Z,59.33
2019-03-29T02:15:37.777Z,56.70
2019-03-29T02:18:07.945Z,63.97
2019-03-29T02:20:37.598Z,67.30
2019-03-29T02:23:07.225Z,61.87
2019-03-29T02:25:36.860Z,63.87
2019-03-29T02:28:06.591Z,64.47
2019-03-29T02:30:36.413Z,61.07
2019-03-29T02:33:06.318Z,58.53
2019-03-29T02:35:36.208Z,65.67
2019-03-29T02:38:05.961Z,57.83
2019-03-29T02:40:35.874Z,70.63
2019-03-29T02:43:05.716Z,65.20
2019-03-29T02:45:35.657Z,65.10
2019-03-29T02:48:05.629Z,65.03
2019-03-29T02:50:36.655Z,78.43
2019-03-29T02:53:06.648Z,76.67
2019-03-29T02:55:36.296Z,79.80
2019-03-29T02:58:05.824Z,67.13
2019-03-29T03:00:36.033Z,72.07
2019-03-29T03:03:05.967Z,64.57
2019-03-29T03:05:35.627Z,62.13
2019-03-29T03:08:05.377Z,65.30
2019-03-29T03:10:35.411Z,63.63
2019-03-29T03:13:05.036Z,64.43
2019-03-29T03:15:34.590Z,64.03
2019-03-29T03:18:04.100Z,64.57
2019-03-29T03:20:33.568Z,61.07
2019-03-29T03:23:03.422Z,69.07
2019-03-29T03:25:32.879Z,61.03
2019-03-29T03:28:02.746Z,66.93
2019-03-29T03:30:32.273Z,77.57
2019-03-29T03:33:01.996Z,121.77
2019-03-29T03:35:31.482Z,82.67
2019-03-29T03:38:01.012Z,82.60
2019-03-29T03:40:30.514Z,94.53
2019-03-29T03:42:59.949Z,73.07
2019-03-29T03:45:29.454Z,73.37
2019-03-29T03:47:58.918Z,69.50
2019-03-29T03:50:40.233Z,69.73
2019-03-29T03:53:11.173Z,67.13
2019-03-29T03:55:41.677Z,68.03
2019-03-29T03:58:11.770Z,65.23
2019-03-29T04:00:50.821Z,75.70
2019-03-29T04:03:20.812Z,75.07
2019-03-29T04:05:50.862Z,70.13
2019-03-29T04:08:20.497Z,68.23
2019-03-29T04:10:49.967Z,67.33
2019-03-29T04:13:19.528Z,122.77
2019-03-29T04:15:49.068Z,70.23
2019-03-29T04:18:18.561Z,76.93
2019-03-29T04:20:48.150Z,63.57
2019-03-29T04:23:17.607Z,70.70
2019-03-29T04:25:47.394Z,67.93
2019-03-29T04:28:16.880Z,70.17
2019-03-29T04:30:46.409Z,72.07
2019-03-29T04:33:16.327Z,65.10
2019-03-29T04:35:46.562Z,69.67
2019-03-29T04:38:16.012Z,79.47
2019-03-29T04:40:45.506Z,73.33
2019-03-29T04:43:15.267Z,81.03
2019-03-29T04:45:44.775Z,104.93
2019-03-29T04:48:14.406Z,74.97
2019-03-29T04:50:43.862Z,69.87
2019-03-29T04:53:13.327Z,66.83
2019-03-29T04:55:42.800Z,67.77
2019-03-29T04:58:12.316Z,74.47
2019-03-29T05:00:42.140Z,89.23
2019-03-29T05:03:11.618Z,80.50
2019-03-29T05:05:41.068Z,97.77
2019-03-29T05:08:10.545Z,106.93
2019-03-29T05:10:40.343Z,230.30
2019-03-29T05:13:09.819Z,157.80
2019-03-29T05:15:39.338Z,132.10
2019-03-29T05:18:09.001Z,124.53
2019-03-29T05:20:38.876Z,137.17
2019-03-29T05:23:08.901Z,183.47
2019-03-29T05:25:38.373Z,141.13
2019-03-29T05:28:07.833Z,165.97
2019-03-29T05:30:37.339Z,134.23
2019-03-29T05:33:06.815Z,143.13
2019-03-29T05:35:36.391Z,152.47
2019-03-29T05:38:06.031Z,123.93
2019-03-29T05:40:35.570Z,120.30
2019-03-29T05:43:05.466Z,119.67
2019-03-29T05:45:35.016Z,117.73
2019-03-29T05:48:04.480Z,125.70
2019-03-29T05:50:36.718Z,104.33
2019-03-29T05:53:05.402Z,105.40
2019-03-29T05:55:34.877Z,108.73
2019-03-29T05:58:04.572Z,105.07
2019-03-29T06:00:34.134Z,102.27
2019-03-29T06:03:03.584Z,93.60
2019-03-29T06:05:33.055Z,91.27
2019-03-29T06:08:02.531Z,78.97
2019-03-29T06:10:32.003Z,86.80
2019-03-29T06:13:01.460Z,83.87
2019-03-29T06:15:30.912Z,84.17
2019-03-29T06:18:00.376Z,93.73
2019-03-29T06:20:30.189Z,86.57
2019-03-29T06:22:59.667Z,80.37
2019-03-29T06:25:29.140Z,77.27
2019-03-29T06:27:58.755Z,76.07
2019-03-29T06:30:29.531Z,77.17
2019-03-29T06:32:59.081Z,82.10
2019-03-29T06:35:31.476Z,82.97
2019-03-29T06:38:01.699Z,82.77
2019-03-29T06:40:31.829Z,83.20
2019-03-29T06:43:01.311Z,84.80
2019-03-29T06:45:30.767Z,69.90
2019-03-29T06:48:00.250Z,73.93
2019-03-29T06:50:29.714Z,73.40
2019-03-29T06:52:59.186Z,69.17
2019-03-29T06:55:28.669Z,66.00
2019-03-29T06:57:58.152Z,66.67
2019-03-29T07:00:27.603Z,62.47
2019-03-29T07:02:57.428Z,64.73
2019-03-29T07:05:26.928Z,67.73
2019-03-29T07:07:56.470Z,58.87
2019-03-29T07:10:25.968Z,58.77
2019-03-29T07:12:56.563Z,60.70
2019-03-29T07:15:26.171Z,56.17
2019-03-29T07:17:55.640Z,57.03
2019-03-29T07:20:25.135Z,58.23
2019-03-29T07:22:54.626Z,58.50
2019-03-29T07:25:24.092Z,81.53
2019-03-29T07:27:53.672Z,80.73
2019-03-29T07:30:23.193Z,61.73
2019-03-29T07:32:52.929Z,47.17
2019-03-29T07:35:22.398Z,46.43
2019-03-29T07:37:51.883Z,39.60
2019-03-29T07:40:21.391Z,40.20
2019-03-29T07:42:50.859Z,42.23
2019-03-29T07:45:20.347Z,42.23
2019-03-29T07:47:50.155Z,44.13
2019-03-29T07:50:19.716Z,43.70
2019-03-29T07:52:49.198Z,44.20
2019-03-29T07:55:18.698Z,42.77
2019-03-29T07:57:48.185Z,38.50
2019-03-29T08:00:20.314Z,42.30
2019-03-29T08:02:48.922Z,35.50
2019-03-29T08:05:18.416Z,36.67
2019-03-29T08:07:47.884Z,32.30
2019-03-29T08:10:25.910Z,35.10
2019-03-29T08:12:49.720Z,32.20
2019-03-29T08:15:19.534Z,30.53
2019-03-29T08:17:49.010Z,28.47
2019-03-29T08:20:39.219Z,19.37
2019-03-29T08:22:49.965Z,20.83
2019-03-29T08:25:19.458Z,21.10
2019-03-29T08:27:49.054Z,18.47
2019-03-29T08:30:18.562Z,19.53
2019-03-29T08:32:48.113Z,20.13
2019-03-29T08:35:17.865Z,20.40
2019-03-29T08:37:47.420Z,22.90
2019-03-29T08:40:16.883Z,23.50
2019-03-29T08:42:46.654Z,22.87
2019-03-29T08:45:16.189Z,23.73
2019-03-29T08:47:45.686Z,26.33
2019-03-29T08:50:15.204Z,28.73
2019-03-29T08:52:44.761Z,28.70
2019-03-29T08:55:17.282Z,27.80
2019-03-29T08:57:45.474Z,27.97
2019-03-29T09:00:18.118Z,26.90
2019-03-29T09:02:47.598Z,30.30
2019-03-29T09:05:17.068Z,26.97
2019-03-29T09:07:46.603Z,22.27
2019-03-29T09:10:27.345Z,24.37
2019-03-29T09:12:56.803Z,24.53
2019-03-29T09:15:26.271Z,23.47
2019-03-29T09:17:55.779Z,23.20
2019-03-29T09:20:25.230Z,22.00
2019-03-29T09:22:54.749Z,20.37
2019-03-29T09:25:24.217Z,19.67
2019-03-29T09:27:53.699Z,21.10
2019-03-29T09:30:23.207Z,23.23
2019-03-29T09:32:52.695Z,19.10
2019-03-29T09:35:22.452Z,18.43
2019-03-29T09:37:51.984Z,17.00
2019-03-29T09:40:21.564Z,20.27
2019-03-29T09:43:06.247Z,13.80
2019-03-29T09:45:22.281Z,13.87
2019-03-29T09:47:51.743Z,13.17
2019-03-29T09:50:22.949Z,12.27
2019-03-29T09:52:52.713Z,16.83
2019-03-29T09:55:22.207Z,23.77
2019-03-29T09:57:51.710Z,15.73
2019-03-29T10:00:23.594Z,8.03
2019-03-29T10:02:52.417Z,7.93
2019-03-29T10:05:21.891Z,10.00
2019-03-29T10:07:51.449Z,9.60
2019-03-29T10:10:20.908Z,7.33
2019-03-29T10:12:50.736Z,6.20
2019-03-29T10:15:20.203Z,10.50
2019-03-29T10:17:49.656Z,8.80
2019-03-29T10:20:19.116Z,13.03
2019-03-29T10:22:48.578Z,18.30
2019-03-29T10:25:20.032Z,15.03
2019-03-29T10:27:49.203Z,12.97
2019-03-29T10:30:38.302Z,12.90
2019-03-29T10:33:07.894Z,11.80
2019-03-29T10:35:50.909Z,10.73
2019-03-29T10:38:09.096Z,12.40
2019-03-29T10:40:38.861Z,10.70
2019-03-29T10:43:08.436Z,11.80
2019-03-29T10:45:40.289Z,9.50
2019-03-29T10:48:09.067Z,9.40
2019-03-29T10:50:38.540Z,10.60
2019-03-29T10:53:08.003Z,9.10
2019-03-29T10:55:37.457Z,8.90
2019-03-29T10:58:09.728Z,8.70
2019-03-29T11:00:40.360Z,11.93
2019-03-29T11:03:10.245Z,11.37
2019-03-29T11:05:39.789Z,13.37
2019-03-29T11:08:11.592Z,14.30
2019-03-29T11:10:40.809Z,11.53
2019-03-29T11:13:13.596Z,13.53
2019-03-29T11:15:41.861Z,13.77
2019-03-29T11:18:11.425Z,13.53
2019-03-29T11:20:40.890Z,15.43
2019-03-29T11:23:10.372Z,13.37
2019-03-29T11:25:39.919Z,13.50
2019-03-29T11:28:09.383Z,15.50
2019-03-29T11:30:42.350Z,14.23
2019-03-29T11:33:10.667Z,16.27
2019-03-29T11:35:40.120Z,14.00
2019-03-29T11:38:09.585Z,12.23
2019-03-29T11:40:39.059Z,12.37
2019-03-29T11:43:26.516Z,12.80
2019-03-29T11:45:48.422Z,14.53
2019-03-29T11:48:18.851Z,11.57
2019-03-29T11:50:48.323Z,13.07
2019-03-29T11:53:18.059Z,12.47
2019-03-29T11:55:47.909Z,11.93
2019-03-29T11:58:17.378Z,10.63
2019-03-29T12:00:47.125Z,12.57
2019-03-29T12:03:16.922Z,12.23
2019-03-29T12:05:46.398Z,12.83
2019-03-29T12:08:15.848Z,11.23
2019-03-29T12:10:45.395Z,12.33
2019-03-29T12:13:15.147Z,12.93
2019-03-29T12:15:44.788Z,11.03
2019-03-29T12:18:14.260Z,10.73
2019-03-29T12:20:43.781Z,11.53
2019-03-29T12:23:13.246Z,11.50
2019-03-29T12:25:42.752Z,11.80
2019-03-29T12:28:12.321Z,13.67
2019-03-29T12:30:41.791Z,11.27
2019-03-29T12:33:11.616Z,11.97
2019-03-29T12:35:41.167Z,12.27
2019-03-29T12:38:10.623Z,11.13
2019-03-29T12:40:40.087Z,9.50
2019-03-29T12:43:12.444Z,11.23
2019-03-29T12:45:40.703Z,9.73
2019-03-29T12:48:10.161Z,9.63
2019-03-29T12:50:40.042Z,10.00
2019-03-29T12:53:09.803Z,9.60
2019-03-29T12:55:39.371Z,10.03
2019-03-29T12:58:08.823Z,9.67
2019-03-29T13:00:38.379Z,10.33
2019-03-29T13:03:07.863Z,9.37
2019-03-29T13:05:37.340Z,9.87
2019-03-29T13:08:07.089Z,9.23
2019-03-29T13:10:36.519Z,8.67
2019-03-29T13:13:05.988Z,8.73
2019-03-29T13:15:36.210Z,7.53
2019-03-29T13:18:05.712Z,8.70
2019-03-29T13:20:35.502Z,9.90
2019-03-29T13:23:05.302Z,7.57
2019-03-29T13:25:35.145Z,8.73
2019-03-29T13:28:04.595Z,14.27
2019-03-29T13:30:37.059Z,9.00
2019-03-29T13:33:10.666Z,9.37
2019-03-29T13:35:40.112Z,9.77
2019-03-29T13:38:09.654Z,8.83
2019-03-29T13:40:39.107Z,8.70
2019-03-29T13:43:08.554Z,9.25
2019-03-29T13:45:38.061Z,12.75
2019-03-29T13:48:07.518Z,10.72
2019-03-29T13:50:36.981Z,9.43
2019-03-29T13:53:06.766Z,8.70
2019-03-29T13:55:36.236Z,12.78
2019-03-29T13:58:05.696Z,9.78
2019-03-29T14:00:35.172Z,10.20
2019-03-29T14:03:04.631Z,8.35
2019-03-29T14:05:34.100Z,9.05
2019-03-29T14:08:03.995Z,7.05
2019-03-29T14:10:33.520Z,9.35
2019-03-29T14:13:02.976Z,7.72
2019-03-29T14:15:32.438Z,10.78
2019-03-29T14:18:01.908Z,8.90
2019-03-29T14:20:32.912Z,9.73
2019-03-29T14:23:03.242Z,9.40
2019-03-29T14:25:33.007Z,8.18
2019-03-29T14:28:03.167Z,7.85
2019-03-29T14:30:32.993Z,8.30
2019-03-29T14:33:02.446Z,7.85
2019-03-29T14:35:32.255Z,7.92
2019-03-29T14:38:01.696Z,7.50
2019-03-29T14:40:31.270Z,8.75
2019-03-29T14:43:00.823Z,9.00
2019-03-29T14:45:30.303Z,7.60
2019-03-29T14:48:00.225Z,9.93
2019-03-29T14:50:29.699Z,7.90
2019-03-29T14:52:59.179Z,8.18
2019-03-29T14:55:28.734Z,8.60
2019-03-29T14:57:58.426Z,7.45
2019-03-29T15:00:44.383Z,8.15
2019-03-29T15:03:13.913Z,7.10
2019-03-29T15:05:43.391Z,8.38
2019-03-29T15:08:13.003Z,7.97
2019-03-29T15:10:45.616Z,7.30
2019-03-29T15:13:13.611Z,6.78
2019-03-29T15:15:43.188Z,12.15
2019-03-29T15:18:12.623Z,12.90
2019-03-29T15:20:52.658Z,12.60
2019-03-29T15:23:13.258Z,13.80
2019-03-29T15:25:43.061Z,12.57
2019-03-29T15:28:13.723Z,11.77
2019-03-29T15:30:43.603Z,12.40
2019-03-29T15:33:13.053Z,10.73
2019-03-29T15:35:43.355Z,14.20
2019-03-29T15:38:12.840Z,11.73
2019-03-29T15:40:42.401Z,14.00
2019-03-29T15:43:11.902Z,18.63
2019-03-29T15:45:41.369Z,11.93
2019-03-29T15:48:10.825Z,12.17
2019-03-29T15:50:40.300Z,11.93
2019-03-29T15:53:10.085Z,14.03
2019-03-29T15:55:39.567Z,16.37
2019-03-29T15:58:09.338Z,11.57
2019-03-29T16:00:38.842Z,13.17
2019-03-29T16:03:08.353Z,12.57
2019-03-29T16:05:37.980Z,11.90
2019-03-29T16:08:07.433Z,10.53
2019-03-29T16:10:36.971Z,14.83
2019-03-29T16:13:06.470Z,14.23
2019-03-29T16:15:38.337Z,14.00
2019-03-29T16:18:07.112Z,10.77
2019-03-29T16:20:36.574Z,12.03
2019-03-29T16:23:06.046Z,9.57
2019-03-29T16:25:35.519Z,11.87
2019-03-29T16:28:04.978Z,9.83
2019-03-29T16:30:34.547Z,9.67
2019-03-29T16:33:04.322Z,11.43
2019-03-29T16:35:33.795Z,10.70
2019-03-29T16:38:03.255Z,10.70
2019-03-29T16:40:32.798Z,9.93
2019-03-29T16:43:02.246Z,16.20
2019-03-29T16:45:31.703Z,11.93
2019-03-29T16:48:01.186Z,10.73
2019-03-29T16:50:30.648Z,13.60
2019-03-29T16:53:00.128Z,12.80
2019-03-29T16:55:29.595Z,12.10
2019-03-29T16:57:59.058Z,12.67
2019-03-29T17:00:28.533Z,12.10
2019-03-29T17:02:58.262Z,13.13
2019-03-29T17:05:27.703Z,15.53
2019-03-29T17:07:57.212Z,12.63
2019-03-29T17:10:26.675Z,13.60
2019-03-29T17:12:56.139Z,11.60
2019-03-29T17:15:25.627Z,11.37
2019-03-29T17:17:55.356Z,11.37
2019-03-29T17:20:24.810Z,12.83
2019-03-29T17:22:54.305Z,15.03
2019-03-29T17:25:23.778Z,12.97
2019-03-29T17:27:53.263Z,17.37
2019-03-29T17:30:34.470Z,14.97
2019-03-29T17:33:03.921Z,17.23
2019-03-29T17:35:33.394Z,13.40
2019-03-29T17:38:02.862Z,15.70
2019-03-29T17:40:32.330Z,15.67
2019-03-29T17:43:02.077Z,17.03
2019-03-29T17:45:31.527Z,15.33
2019-03-29T17:48:01.003Z,17.77
2019-03-29T17:50:30.841Z,18.10
2019-03-29T17:53:00.321Z,16.07
2019-03-29T17:55:31.789Z,18.07
2019-03-29T17:58:00.975Z,19.73
2019-03-29T18:00:31.402Z,23.47
2019-03-29T18:03:01.164Z,19.23
2019-03-29T18:05:30.633Z,22.77
2019-03-29T18:08:00.459Z,22.37
2019-03-29T18:10:29.909Z,22.83
2019-03-29T18:12:59.392Z,21.77
2019-03-29T18:15:28.862Z,21.57
2019-03-29T18:17:58.609Z,19.00
2019-03-29T18:20:28.077Z,21.50
2019-03-29T18:22:57.546Z,19.57
2019-03-29T18:25:27.291Z,24.03
2019-03-29T18:27:56.836Z,20.03
2019-03-29T18:30:35.189Z,22.23
2019-03-29T18:33:05.583Z,20.93
2019-03-29T18:35:35.311Z,22.13
2019-03-29T18:38:04.780Z,24.60
2019-03-29T18:40:34.230Z,24.60
2019-03-29T18:43:03.866Z,24.00
2019-03-29T18:45:33.343Z,35.27
2019-03-29T18:48:02.882Z,38.73
2019-03-29T18:50:32.349Z,37.77
2019-03-29T18:53:01.830Z,41.13
2019-03-29T18:55:31.284Z,31.43
2019-03-29T18:58:00.929Z,33.00
2019-03-29T19:00:51.384Z,28.60
2019-03-29T19:03:20.876Z,36.33
2019-03-29T19:05:50.331Z,35.57
2019-03-29T19:08:19.809Z,33.27
2019-03-29T19:10:49.263Z,28.53
2019-03-29T19:13:18.905Z,30.97
2019-03-29T19:15:48.377Z,30.87
2019-03-29T19:18:18.141Z,38.53
2019-03-29T19:20:47.611Z,34.50
2019-03-29T19:23:17.165Z,29.20
2019-03-29T19:25:47.199Z,30.73
2019-03-29T19:28:16.736Z,35.10
2019-03-29T19:30:46.314Z,29.50
2019-03-29T19:33:15.747Z,36.87
2019-03-29T19:35:45.242Z,36.03
2019-03-29T19:38:14.720Z,33.97
2019-03-29T19:40:44.185Z,30.77
2019-03-29T19:43:14.106Z,28.40
2019-03-29T19:45:43.853Z,33.00
2019-03-29T19:48:13.317Z,29.40
2019-03-29T19:50:42.807Z,32.07
2019-03-29T19:53:12.362Z,27.60
2019-03-29T19:55:41.867Z,28.50
2019-03-29T19:58:11.416Z,29.13
2019-03-29T20:00:41.862Z,27.30
2019-03-29T20:03:11.674Z,26.20
2019-03-29T20:05:41.420Z,27.03
2019-03-29T20:08:10.974Z,27.33
2019-03-29T20:10:40.710Z,25.70
2019-03-29T20:13:10.174Z,28.57
2019-03-29T20:15:39.641Z,25.13
2019-03-29T20:18:09.138Z,26.37
2019-03-29T20:20:38.607Z,24.17
2019-03-29T20:23:08.342Z,27.47
2019-03-29T20:25:37.802Z,32.13
2019-03-29T20:28:07.388Z,24.90
2019-03-29T20:30:37.218Z,31.43
2019-03-29T20:33:06.694Z,27.47
2019-03-29T20:35:36.160Z,25.03
2019-03-29T20:38:05.725Z,27.87
2019-03-29T20:40:35.361Z,35.77
2019-03-29T20:43:04.840Z,34.07
2019-03-29T20:45:34.303Z,30.60
2019-03-29T20:48:04.108Z,41.93
2019-03-29T20:50:33.584Z,31.63
2019-03-29T20:53:03.323Z,37.23
2019-03-29T20:55:32.777Z,32.80
2019-03-29T20:58:02.432Z,31.57
2019-03-29T21:00:32.199Z,30.03
2019-03-29T21:03:01.677Z,31.73
2019-03-29T21:05:31.154Z,32.40
2019-03-29T21:08:00.629Z,31.80
2019-03-29T21:10:30.086Z,31.03
2019-03-29T21:12:59.591Z,29.83
2019-03-29T21:15:29.295Z,28.80
2019-03-29T21:17:58.819Z,32.37
2019-03-29T21:20:28.546Z,30.37
2019-03-29T21:22:58.026Z,31.77
2019-03-29T21:25:27.767Z,31.77
2019-03-29T21:27:57.245Z,31.13
2019-03-29T21:30:26.724Z,29.10
2019-03-29T21:32:56.201Z,30.10
2019-03-29T21:35:25.686Z,33.00
2019-03-29T21:37:55.504Z,33.80
2019-03-29T21:40:24.959Z,34.63
2019-03-29T21:42:54.496Z,34.47
2019-03-29T21:45:28.900Z,41.57
2019-03-29T21:48:02.333Z,39.17
2019-03-29T21:50:26.280Z,35.13
2019-03-29T21:52:55.756Z,35.17
2019-03-29T21:55:25.533Z,35.03
2019-03-29T21:57:55.013Z,37.37
2019-03-29T22:00:24.480Z,45.03
2019-03-29T22:02:53.949Z,42.57
2019-03-29T22:05:23.429Z,40.23
2019-03-29T22:07:52.930Z,47.47
2019-03-29T22:10:22.416Z,40.07
2019-03-29T22:12:51.877Z,37.67
2019-03-29T22:15:21.350Z,45.80
2019-03-29T22:17:50.824Z,38.43
2019-03-29T22:20:20.302Z,48.53
2019-03-29T22:22:49.762Z,43.70
2019-03-29T22:25:19.229Z,48.27
2019-03-29T22:27:48.707Z,48.10
2019-03-29T22:30:18.272Z,47.17
2019-03-29T22:32:48.059Z,50.07
2019-03-29T22:35:17.540Z,49.17
2019-03-29T22:37:47.290Z,45.47
2019-03-29T22:40:16.843Z,51.43
2019-03-29T22:42:46.313Z,52.73
2019-03-29T22:45:15.782Z,50.60
2019-03-29T22:47:45.247Z,60.87
2019-03-29T22:50:14.977Z,47.53
2019-03-29T22:52:44.430Z,51.40
2019-03-29T22:55:13.937Z,64.50
2019-03-29T22:57:43.394Z,55.87
2019-03-29T23:00:22.062Z,53.27
2019-03-29T23:02:51.856Z,46.30
2019-03-29T23:05:21.497Z,59.93
2019-03-29T23:07:50.949Z,54.33
2019-03-29T23:10:20.750Z,49.27
2019-03-29T23:12:50.205Z,64.23
2019-03-29T23:15:19.677Z,57.77
2019-03-29T23:17:49.129Z,68.37
2019-03-29T23:20:18.592Z,53.00
2019-03-29T23:22:48.041Z,65.23
2019-03-29T23:25:17.526Z,55.47
2019-03-29T23:27:47.227Z,49.57
2019-03-29T23:30:17.851Z,61.13
2019-03-29T23:32:47.751Z,53.80
2019-03-29T23:35:17.561Z,66.17
2019-03-29T23:37:47.329Z,55.83
2019-03-29T23:40:16.870Z,64.57
2019-03-29T23:42:46.352Z,57.90
2019-03-29T23:45:15.816Z,72.83
2019-03-29T23:47:45.272Z,55.67
2019-03-29T23:50:15.138Z,66.37
2019-03-29T23:52:44.602Z,68.47
2019-03-29T23:55:14.420Z,54.60
2019-03-29T23:57:43.905Z,71.17
